Portada
METAR-TAF:

METAR-TAF

Aeropuertos :

Montichiari

Brescia, Italia

latitud: 45-24-02N, longitud: 010-18-59E, altitud: 104 m

Observación

El informe se hizo hace 1 hora y 10 minutos, a las 05:50 UTC
Viento 7 kt del este-noreste, variando entre norte-noreste y este
Temperatura 20°C
Humedad 78%
Presión 1006 hPa
Visibilidad 10 km o más
Cielo nuboso a una altura de 5000 ft

METAR: LIPO 070550Z 06007KT 020V080 9999 BKN050 20/16 Q1006

Hora: 09:00 (07:00 UTC)

Pronóstico

El informe se hizo hace 2 horas y 0 minutos, a las 05:00 UTC
Pronóstico válido del 07 a las 06 UTC al 08 a las 06 UTC
Viento 5 kt con dirección variable
Visibilidad 10 km o más
Cielo nuboso a una altura de 4000 ft
Temporalmente
del 07 a las 06 UTC al 07 a las 24 UTC
tormenta, lluvia

TAF: LIPO 070500Z 0706/0806 VRB05KT 9999 BKN040 TEMPO 0706/0724 TSRA

Observaciones y pronósticos meteorológicos de más de 4000 aeropuertos (mensajes METAR y TAF).

Los puntos amarillos y rojos representan las estaciones disponibles.

Ponga el ratón en el punto deseado para ver el nombre de la estación.

Haga clic para ver las observaciones y los pronósticos meteorológicos.

Para cambiar el mapa : haga clic en los botones verdes con una cruz de color negro para hacer un zoom, en el botón verde con un guión para alejar o en las flechas verdes para mapas adyacentes.


METAR-TAF: